createdAt,value
2023-05-06T00:02:05.971Z,18.54
2023-05-06T00:04:32.586Z,18.48
2023-05-06T00:07:02.649Z,18.48
2023-05-06T00:09:29.412Z,18.51
2023-05-06T00:11:56.856Z,18.43
2023-05-06T00:14:23.446Z,18.46
2023-05-06T00:16:50.020Z,18.21
2023-05-06T00:19:17.290Z,18.07
2023-05-06T00:21:43.874Z,18.38
2023-05-06T00:24:10.428Z,18.50
2023-05-06T00:26:37.006Z,18.40
2023-05-06T00:29:03.801Z,18.39
2023-05-06T00:31:30.801Z,18.26
2023-05-06T00:33:59.561Z,18.31
2023-05-06T00:36:26.149Z,18.34
2023-05-06T00:38:53.353Z,18.28
2023-05-06T00:41:19.950Z,18.27
2023-05-06T00:43:46.525Z,18.08
2023-05-06T00:46:13.177Z,18.19
2023-05-06T00:48:39.834Z,18.24
2023-05-06T00:51:07.284Z,18.24
2023-05-06T00:53:33.854Z,18.10
2023-05-06T00:56:00.427Z,18.22
2023-05-06T00:58:26.986Z,18.42
2023-05-06T01:00:53.626Z,18.38
2023-05-06T01:03:20.348Z,18.10
2023-05-06T01:05:47.015Z,18.18
2023-05-06T01:08:13.614Z,18.32
2023-05-06T01:10:41.039Z,18.29
2023-05-06T01:13:09.109Z,18.18
2023-05-06T01:15:35.838Z,18.24
2023-05-06T01:18:03.216Z,18.05
2023-05-06T01:20:30.869Z,18.03
2023-05-06T01:22:57.474Z,18.11
2023-05-06T01:25:24.074Z,18.18
2023-05-06T01:27:50.677Z,18.07
2023-05-06T01:30:20.522Z,18.11
2023-05-06T01:32:47.131Z,18.25
2023-05-06T01:35:13.734Z,18.37
2023-05-06T01:37:40.302Z,18.37
2023-05-06T01:40:06.894Z,18.30
2023-05-06T01:42:37.720Z,18.36
2023-05-06T01:45:04.332Z,18.08
2023-05-06T01:47:30.945Z,18.14
2023-05-06T01:49:58.357Z,18.28
2023-05-06T01:52:24.939Z,18.41
2023-05-06T01:54:51.527Z,18.47
2023-05-06T01:57:18.136Z,18.09
2023-05-06T01:59:44.705Z,18.01
2023-05-06T02:02:11.276Z,18.33
2023-05-06T02:04:37.878Z,18.19
2023-05-06T02:07:05.129Z,18.32
2023-05-06T02:09:31.737Z,18.45
2023-05-06T02:11:58.308Z,18.66
2023-05-06T02:14:24.931Z,18.39
2023-05-06T02:16:51.495Z,18.45
2023-05-06T02:19:18.141Z,18.69
2023-05-06T02:21:45.071Z,18.84
2023-05-06T02:24:11.635Z,18.96
2023-05-06T02:26:40.951Z,18.97
2023-05-06T02:29:10.290Z,18.77
2023-05-06T02:31:41.002Z,18.48
2023-05-06T02:34:07.619Z,18.52
2023-05-06T02:36:34.209Z,18.70
2023-05-06T02:39:00.800Z,18.81
2023-05-06T02:41:27.384Z,18.81
2023-05-06T02:43:54.686Z,18.78
2023-05-06T02:46:22.156Z,18.88
2023-05-06T02:48:49.005Z,18.80
2023-05-06T02:51:18.417Z,18.81
2023-05-06T02:53:44.966Z,18.61
2023-05-06T02:56:11.640Z,18.65
2023-05-06T02:58:38.207Z,18.50
2023-05-06T03:01:15.576Z,18.60
2023-05-06T03:03:43.346Z,18.25
2023-05-06T03:06:09.946Z,18.39
2023-05-06T03:08:36.492Z,18.29
2023-05-06T03:11:05.387Z,18.18
2023-05-06T03:13:33.352Z,18.32
2023-05-06T03:16:00.580Z,18.01
2023-05-06T03:18:27.158Z,18.12
2023-05-06T03:20:54.115Z,18.40
2023-05-06T03:23:21.131Z,18.25
2023-05-06T03:25:47.706Z,18.30
2023-05-06T03:28:17.101Z,18.25
2023-05-06T03:30:43.743Z,18.14
2023-05-06T03:33:11.351Z,18.19
2023-05-06T03:35:37.930Z,18.09
2023-05-06T03:38:04.509Z,18.21
2023-05-06T03:40:31.255Z,18.23
2023-05-06T03:42:57.802Z,18.10
2023-05-06T03:45:24.379Z,18.25
2023-05-06T03:47:50.958Z,18.22
2023-05-06T03:50:17.605Z,18.24
2023-05-06T03:52:44.174Z,17.99
2023-05-06T03:55:10.972Z,18.07
2023-05-06T03:57:37.759Z,18.04
2023-05-06T04:00:04.393Z,18.07
2023-05-06T04:02:31.155Z,18.18
2023-05-06T04:04:57.845Z,18.29
2023-05-06T04:07:24.598Z,17.98
2023-05-06T04:09:51.185Z,18.02
2023-05-06T04:12:17.912Z,17.85
2023-05-06T04:14:44.501Z,17.95
2023-05-06T04:17:11.092Z,18.21
2023-05-06T04:19:37.663Z,17.95
2023-05-06T04:22:04.247Z,17.93
2023-05-06T04:24:33.182Z,17.90
2023-05-06T04:26:59.741Z,17.95
2023-05-06T04:29:26.883Z,18.14
2023-05-06T04:31:53.451Z,18.26
2023-05-06T04:34:20.077Z,18.26
2023-05-06T04:36:47.617Z,17.90
2023-05-06T04:39:14.184Z,18.16
2023-05-06T04:41:40.767Z,18.15
2023-05-06T04:44:07.542Z,18.21
2023-05-06T04:46:34.335Z,18.44
2023-05-06T04:49:01.097Z,18.46
2023-05-06T04:51:27.685Z,18.41
2023-05-06T04:53:55.002Z,18.25
2023-05-06T04:56:21.584Z,18.52
2023-05-06T04:58:48.137Z,18.84
2023-05-06T05:01:14.802Z,19.16
2023-05-06T05:03:41.489Z,19.29
2023-05-06T05:06:08.103Z,19.60
2023-05-06T05:08:34.737Z,19.79
2023-05-06T05:11:01.307Z,19.76
2023-05-06T05:13:28.295Z,20.15
2023-05-06T05:15:54.881Z,20.14
2023-05-06T05:18:21.530Z,19.97
2023-05-06T05:20:48.105Z,19.91
2023-05-06T05:23:15.065Z,20.02
2023-05-06T05:25:41.636Z,20.04
2023-05-06T05:28:08.205Z,20.15
2023-05-06T05:30:34.793Z,20.16
2023-05-06T05:33:01.512Z,20.12
2023-05-06T05:35:28.166Z,20.11
2023-05-06T05:37:54.731Z,20.18
2023-05-06T05:40:21.313Z,20.15
2023-05-06T05:42:47.865Z,20.15
2023-05-06T05:45:14.467Z,20.16
2023-05-06T05:47:41.094Z,20.27
2023-05-06T05:50:07.714Z,20.41
2023-05-06T05:52:35.038Z,20.65
2023-05-06T05:55:01.827Z,20.71
2023-05-06T05:57:28.569Z,20.89
2023-05-06T05:59:55.135Z,20.90
2023-05-06T06:02:21.756Z,20.94
2023-05-06T06:04:48.489Z,21.01
2023-05-06T06:07:15.061Z,21.03
2023-05-06T06:09:41.659Z,20.90
2023-05-06T06:12:08.227Z,20.92
2023-05-06T06:14:35.178Z,20.76
2023-05-06T06:17:01.772Z,20.80
2023-05-06T06:19:28.374Z,21.16
2023-05-06T06:21:57.257Z,21.31
2023-05-06T06:24:23.834Z,21.23
2023-05-06T06:26:50.963Z,21.13
2023-05-06T06:29:17.583Z,21.19
2023-05-06T06:31:44.185Z,21.20
2023-05-06T06:34:11.850Z,21.31
2023-05-06T06:36:39.093Z,21.24
2023-05-06T06:39:05.673Z,21.35
2023-05-06T06:41:32.293Z,21.31
2023-05-06T06:43:58.945Z,21.57
2023-05-06T06:46:25.563Z,21.88
2023-05-06T06:48:52.205Z,22.00
2023-05-06T06:51:20.302Z,22.21
2023-05-06T06:53:46.893Z,22.17
2023-05-06T06:56:13.503Z,21.93
2023-05-06T06:58:40.456Z,22.23
2023-05-06T07:01:09.549Z,22.37
2023-05-06T07:03:36.132Z,22.58
2023-05-06T07:06:03.047Z,22.66
2023-05-06T07:08:29.641Z,22.79
2023-05-06T07:10:56.205Z,22.94
2023-05-06T07:13:22.946Z,22.89
2023-05-06T07:15:49.926Z,22.99
2023-05-06T07:18:16.567Z,23.00
2023-05-06T07:20:43.255Z,23.01
2023-05-06T07:23:09.834Z,23.14
2023-05-06T07:25:36.395Z,23.42
2023-05-06T07:28:03.062Z,23.61
2023-05-06T07:30:29.665Z,23.72
2023-05-06T07:32:57.515Z,23.20
2023-05-06T07:35:24.202Z,23.14
2023-05-06T07:37:50.773Z,22.99
2023-05-06T07:40:17.793Z,23.55
2023-05-06T07:42:44.377Z,23.60
2023-05-06T07:45:11.493Z,23.60
2023-05-06T07:47:38.331Z,23.50
2023-05-06T07:50:04.977Z,23.77
2023-05-06T07:52:32.917Z,24.20
2023-05-06T07:54:59.602Z,24.60
2023-05-06T07:57:26.190Z,24.74
2023-05-06T07:59:52.812Z,25.07
2023-05-06T08:02:19.493Z,25.25
2023-05-06T08:04:46.138Z,25.51
2023-05-06T08:07:14.245Z,25.27
2023-05-06T08:09:40.838Z,25.56
2023-05-06T08:12:07.398Z,25.74
2023-05-06T08:14:34.011Z,25.67
2023-05-06T08:17:00.582Z,25.95
2023-05-06T08:19:27.321Z,25.92
2023-05-06T08:21:53.874Z,26.34
2023-05-06T08:24:20.453Z,26.12
2023-05-06T08:26:47.036Z,26.07
2023-05-06T08:29:13.654Z,26.39
2023-05-06T08:31:40.244Z,26.26
2023-05-06T08:34:06.824Z,26.69
2023-05-06T08:36:33.461Z,26.82
2023-05-06T08:39:00.061Z,26.93
2023-05-06T08:41:30.868Z,27.31
2023-05-06T08:43:57.572Z,27.48
2023-05-06T08:46:24.195Z,27.04
2023-05-06T08:48:50.780Z,26.96
2023-05-06T08:51:17.367Z,27.12
2023-05-06T08:53:43.933Z,27.50
2023-05-06T08:56:10.522Z,27.75
2023-05-06T08:58:37.086Z,27.84
2023-05-06T09:01:03.712Z,28.45
2023-05-06T09:03:31.624Z,28.13
2023-05-06T09:05:58.386Z,28.73
2023-05-06T09:08:24.956Z,27.92
2023-05-06T09:10:51.595Z,27.91
2023-05-06T09:13:18.204Z,27.03
2023-05-06T09:15:44.920Z,26.85
2023-05-06T09:18:11.742Z,27.65
2023-05-06T09:20:38.407Z,28.27
2023-05-06T09:23:05.005Z,27.66
2023-05-06T09:25:31.623Z,27.49
2023-05-06T09:27:58.255Z,27.15
2023-05-06T09:30:24.956Z,27.65
2023-05-06T09:32:51.606Z,27.22
2023-05-06T09:35:18.229Z,27.01
2023-05-06T09:37:45.473Z,27.73
2023-05-06T09:40:12.080Z,28.22
2023-05-06T09:42:38.643Z,28.72
2023-05-06T09:45:05.391Z,29.28
2023-05-06T09:47:32.937Z,29.71
2023-05-06T09:49:59.576Z,28.79
2023-05-06T09:52:26.246Z,28.77
2023-05-06T09:54:52.826Z,29.05
2023-05-06T09:57:19.626Z,28.52
2023-05-06T09:59:46.556Z,29.04
2023-05-06T10:02:13.230Z,28.48
2023-05-06T10:04:39.948Z,29.01
2023-05-06T10:07:06.771Z,29.67
2023-05-06T10:09:33.318Z,29.17
2023-05-06T10:11:59.891Z,28.38
2023-05-06T10:14:26.474Z,27.60
2023-05-06T10:16:53.074Z,28.76
2023-05-06T10:19:19.666Z,29.30
2023-05-06T10:21:48.983Z,29.27
2023-05-06T10:24:15.561Z,30.03
2023-05-06T10:26:42.165Z,30.34
2023-05-06T10:29:08.845Z,30.17
2023-05-06T10:31:35.459Z,29.17
2023-05-06T10:34:02.070Z,28.53
2023-05-06T10:36:28.631Z,28.19
2023-05-06T10:38:55.207Z,27.76
2023-05-06T10:41:22.063Z,28.91
2023-05-06T10:43:49.067Z,29.74
2023-05-06T10:46:15.811Z,30.01
2023-05-06T10:48:42.551Z,30.19
2023-05-06T10:51:12.042Z,30.32
2023-05-06T10:53:38.646Z,29.43
2023-05-06T10:56:05.235Z,28.70
2023-05-06T10:58:31.818Z,28.17
2023-05-06T11:00:58.454Z,27.56
2023-05-06T11:03:25.323Z,27.62
2023-05-06T11:05:51.975Z,27.81
2023-05-06T11:08:18.541Z,27.26
2023-05-06T11:10:45.135Z,27.60
2023-05-06T11:13:14.140Z,27.67
2023-05-06T11:15:40.764Z,28.52
2023-05-06T11:18:07.450Z,29.04
2023-05-06T11:20:34.078Z,28.95
2023-05-06T11:23:00.642Z,29.77
2023-05-06T11:25:27.246Z,29.17
2023-05-06T11:27:53.887Z,28.89
2023-05-06T11:30:20.487Z,29.66
2023-05-06T11:32:47.145Z,30.28
2023-05-06T11:35:13.835Z,30.30
2023-05-06T11:37:43.382Z,30.00
2023-05-06T11:40:10.168Z,30.14
2023-05-06T11:42:36.966Z,30.18
2023-05-06T11:45:03.522Z,30.27
2023-05-06T11:47:31.330Z,29.54
2023-05-06T11:49:57.926Z,29.80
2023-05-06T11:52:24.532Z,29.79
2023-05-06T11:54:51.183Z,29.85
2023-05-06T11:57:18.760Z,29.94
2023-05-06T11:59:45.324Z,29.62
2023-05-06T12:02:11.902Z,28.47
2023-05-06T12:04:38.568Z,28.24
2023-05-06T12:07:05.177Z,28.13
2023-05-06T12:09:32.020Z,28.30
2023-05-06T12:12:00.354Z,28.34
2023-05-06T12:14:26.937Z,28.44
2023-05-06T12:16:55.915Z,29.03
2023-05-06T12:19:22.737Z,29.14
2023-05-06T12:21:49.306Z,29.06
2023-05-06T12:24:15.969Z,28.95
2023-05-06T12:26:43.261Z,29.33
2023-05-06T12:29:09.853Z,29.47
2023-05-06T12:31:37.430Z,29.56
2023-05-06T12:34:04.091Z,30.08
2023-05-06T12:36:30.638Z,30.45
2023-05-06T12:38:58.369Z,30.75
2023-05-06T12:41:24.946Z,29.76
2023-05-06T12:43:51.547Z,29.42
2023-05-06T12:46:18.329Z,29.58
2023-05-06T12:48:44.938Z,30.06
2023-05-06T12:51:11.502Z,31.06
2023-05-06T12:53:38.069Z,31.62
2023-05-06T12:56:04.661Z,31.27
2023-05-06T12:58:31.242Z,31.60
2023-05-06T13:00:57.859Z,32.14
2023-05-06T13:03:24.537Z,31.63
2023-05-06T13:05:51.229Z,30.92
2023-05-06T13:08:17.834Z,30.63
2023-05-06T13:10:44.417Z,29.35
2023-05-06T13:13:11.014Z,29.55
2023-05-06T13:15:37.625Z,29.40
2023-05-06T13:18:04.248Z,29.70
2023-05-06T13:20:32.370Z,29.72
2023-05-06T13:22:58.931Z,30.39
2023-05-06T13:25:26.502Z,29.90
2023-05-06T13:27:54.254Z,29.77
2023-05-06T13:30:21.286Z,30.43
2023-05-06T13:32:48.031Z,30.57
2023-05-06T13:35:15.164Z,30.52
2023-05-06T13:37:41.745Z,30.66
2023-05-06T13:40:08.476Z,29.47
2023-05-06T13:42:35.129Z,29.52
2023-05-06T13:45:01.703Z,28.18
2023-05-06T13:47:28.390Z,27.90
2023-05-06T13:50:00.214Z,28.32
2023-05-06T13:52:26.900Z,28.70
2023-05-06T13:54:53.523Z,28.29
2023-05-06T13:57:20.099Z,29.10
2023-05-06T13:59:46.709Z,28.78
2023-05-06T14:02:13.645Z,29.52
2023-05-06T14:04:40.472Z,29.98
2023-05-06T14:07:07.070Z,29.52
2023-05-06T14:09:34.369Z,30.57
2023-05-06T14:12:04.393Z,31.57
2023-05-06T14:14:30.989Z,32.28
2023-05-06T14:16:57.673Z,30.48
2023-05-06T14:19:24.267Z,30.27
2023-05-06T14:21:51.207Z,29.76
2023-05-06T14:24:17.866Z,29.63
2023-05-06T14:26:44.506Z,29.07
2023-05-06T14:29:11.146Z,29.12
2023-05-06T14:31:38.101Z,29.75
2023-05-06T14:34:05.155Z,30.08
2023-05-06T14:36:31.721Z,30.34
2023-05-06T14:38:58.361Z,29.72
2023-05-06T14:41:25.683Z,28.93
2023-05-06T14:43:52.640Z,29.00
2023-05-06T14:46:19.319Z,28.59
2023-05-06T14:48:46.031Z,29.28
2023-05-06T14:51:12.618Z,30.29
2023-05-06T14:53:39.883Z,31.13
2023-05-06T14:56:06.474Z,30.11
2023-05-06T14:58:33.439Z,28.88
2023-05-06T15:01:00.094Z,29.08
2023-05-06T15:03:26.761Z,29.72
2023-05-06T15:05:54.535Z,28.88
2023-05-06T15:08:21.130Z,28.55
2023-05-06T15:10:47.716Z,29.24
2023-05-06T15:13:14.400Z,29.21
2023-05-06T15:15:41.209Z,28.37
2023-05-06T15:18:07.891Z,27.44
2023-05-06T15:20:34.552Z,27.42
2023-05-06T15:23:01.198Z,27.02
2023-05-06T15:25:35.767Z,27.09
2023-05-06T15:28:04.620Z,27.08
2023-05-06T15:30:31.292Z,27.09
2023-05-06T15:32:57.967Z,27.32
2023-05-06T15:35:24.566Z,27.39
2023-05-06T15:37:51.178Z,27.05
2023-05-06T15:40:17.770Z,27.23
2023-05-06T15:42:44.331Z,27.12
2023-05-06T15:45:10.938Z,25.69
2023-05-06T15:47:37.666Z,25.68
2023-05-06T15:50:16.411Z,25.41
2023-05-06T15:52:47.723Z,25.51
2023-05-06T15:55:14.336Z,25.00
2023-05-06T15:57:40.951Z,25.17
2023-05-06T16:00:07.565Z,24.46
2023-05-06T16:02:34.245Z,24.00
2023-05-06T16:05:00.960Z,24.28
2023-05-06T16:07:30.669Z,24.29
2023-05-06T16:09:57.259Z,23.68
2023-05-06T16:12:23.865Z,23.88
2023-05-06T16:14:50.451Z,23.96
2023-05-06T16:17:17.036Z,23.67
2023-05-06T16:19:43.935Z,23.67
2023-05-06T16:22:10.518Z,23.73
2023-05-06T16:24:37.101Z,23.52
2023-05-06T16:27:03.669Z,23.49
2023-05-06T16:29:30.356Z,23.41
2023-05-06T16:31:57.001Z,23.13
2023-05-06T16:34:23.635Z,23.32
2023-05-06T16:36:50.240Z,23.42
2023-05-06T16:39:16.835Z,23.58
2023-05-06T16:41:43.425Z,23.16
2023-05-06T16:44:10.774Z,22.65
2023-05-06T16:46:37.399Z,22.29
2023-05-06T16:49:04.155Z,22.01
2023-05-06T16:51:30.722Z,22.57
2023-05-06T16:53:57.308Z,23.15
2023-05-06T16:56:28.221Z,23.54
2023-05-06T16:58:59.653Z,23.25
2023-05-06T17:01:26.283Z,22.52
2023-05-06T17:03:52.864Z,22.45
2023-05-06T17:06:19.442Z,22.56
2023-05-06T17:08:46.018Z,22.28
2023-05-06T17:11:12.613Z,22.27
2023-05-06T17:13:39.420Z,22.01
2023-05-06T17:16:06.022Z,22.41
2023-05-06T17:18:32.585Z,22.49
2023-05-06T17:20:59.169Z,22.37
2023-05-06T17:23:25.723Z,22.64
2023-05-06T17:25:52.919Z,23.17
2023-05-06T17:28:19.561Z,23.32
2023-05-06T17:30:46.206Z,23.54
2023-05-06T17:33:12.887Z,23.87
2023-05-06T17:35:39.564Z,23.76
2023-05-06T17:38:06.499Z,23.88
2023-05-06T17:40:33.137Z,23.60
2023-05-06T17:42:59.716Z,23.17
2023-05-06T17:45:26.328Z,23.27
2023-05-06T17:47:52.981Z,23.37
2023-05-06T17:50:19.570Z,23.37
2023-05-06T17:52:46.157Z,23.27
2023-05-06T17:55:17.071Z,23.07
2023-05-06T17:57:44.278Z,23.08
2023-05-06T18:00:10.849Z,22.85
2023-05-06T18:02:37.564Z,22.47
2023-05-06T18:05:04.676Z,22.64
2023-05-06T18:07:31.237Z,22.90
2023-05-06T18:09:57.841Z,23.00
2023-05-06T18:12:24.408Z,22.95
2023-05-06T18:14:51.120Z,22.93
2023-05-06T18:17:17.866Z,23.05
2023-05-06T18:19:46.442Z,22.97
2023-05-06T18:22:13.056Z,22.72
2023-05-06T18:24:39.628Z,22.74
2023-05-06T18:27:06.283Z,22.50
2023-05-06T18:29:32.870Z,22.35
2023-05-06T18:31:59.502Z,22.40
2023-05-06T18:34:26.137Z,22.54
2023-05-06T18:36:53.054Z,22.65
2023-05-06T18:39:19.649Z,22.60
2023-05-06T18:41:46.245Z,22.57
2023-05-06T18:44:12.897Z,22.77
2023-05-06T18:46:39.494Z,22.68
2023-05-06T18:49:06.622Z,22.63
2023-05-06T18:51:33.468Z,22.67
2023-05-06T18:54:00.172Z,22.64
2023-05-06T18:56:26.775Z,22.74
2023-05-06T18:58:53.386Z,22.86
2023-05-06T19:01:20.044Z,23.03
2023-05-06T19:03:46.675Z,22.91
2023-05-06T19:06:13.581Z,22.57
2023-05-06T19:08:46.332Z,22.50
2023-05-06T19:11:12.996Z,22.50
2023-05-06T19:13:39.726Z,22.56
2023-05-06T19:16:06.328Z,22.86
2023-05-06T19:18:32.910Z,22.92
2023-05-06T19:20:59.699Z,22.86
2023-05-06T19:23:26.262Z,22.51
2023-05-06T19:25:52.886Z,22.54
2023-05-06T19:28:19.447Z,22.58
2023-05-06T19:30:46.049Z,22.60
2023-05-06T19:33:12.677Z,22.70
2023-05-06T19:35:39.322Z,22.70
2023-05-06T19:38:05.919Z,22.20
2023-05-06T19:40:32.508Z,21.65
2023-05-06T19:42:59.088Z,21.77
2023-05-06T19:45:25.679Z,21.79
2023-05-06T19:47:52.417Z,21.59
2023-05-06T19:50:19.030Z,21.42
2023-05-06T19:52:45.718Z,21.74
2023-05-06T19:55:12.443Z,21.85
2023-05-06T19:57:39.283Z,21.90
2023-05-06T20:00:05.981Z,22.21
2023-05-06T20:02:32.788Z,22.29
2023-05-06T20:04:59.630Z,22.48
2023-05-06T20:07:26.194Z,22.56
2023-05-06T20:09:52.783Z,22.63
2023-05-06T20:12:19.533Z,22.51
2023-05-06T20:14:46.193Z,22.58
2023-05-06T20:17:12.742Z,22.52
2023-05-06T20:19:39.322Z,22.40
2023-05-06T20:22:05.894Z,22.23
2023-05-06T20:24:32.701Z,21.66
2023-05-06T20:26:59.272Z,21.69
2023-05-06T20:29:25.863Z,21.86
2023-05-06T20:31:52.526Z,21.95
2023-05-06T20:34:19.139Z,21.98
2023-05-06T20:36:45.691Z,22.02
2023-05-06T20:39:12.289Z,21.89
2023-05-06T20:41:38.886Z,21.62
2023-05-06T20:44:05.620Z,21.58
2023-05-06T20:46:32.211Z,21.73
2023-05-06T20:49:01.671Z,21.69
2023-05-06T20:51:28.257Z,21.65
2023-05-06T20:53:54.802Z,21.68
2023-05-06T20:56:23.142Z,21.68
2023-05-06T20:58:49.941Z,21.58
2023-05-06T21:01:16.938Z,21.67
2023-05-06T21:03:43.616Z,21.68
2023-05-06T21:06:10.284Z,21.68
2023-05-06T21:08:37.867Z,21.64
2023-05-06T21:11:04.482Z,21.43
2023-05-06T21:13:31.143Z,21.52
2023-05-06T21:15:58.878Z,21.51
2023-05-06T21:18:25.621Z,21.38
2023-05-06T21:20:52.427Z,21.41
2023-05-06T21:23:19.012Z,21.41
2023-05-06T21:25:45.644Z,21.43
2023-05-06T21:28:12.211Z,21.31
2023-05-06T21:30:39.134Z,21.26
2023-05-06T21:33:05.752Z,21.47
2023-05-06T21:35:32.396Z,21.52
2023-05-06T21:37:58.966Z,21.46
2023-05-06T21:40:25.729Z,21.21
2023-05-06T21:42:52.331Z,21.24
2023-05-06T21:45:18.886Z,21.24
2023-05-06T21:47:45.504Z,21.36
2023-05-06T21:50:12.147Z,21.31
2023-05-06T21:52:38.726Z,21.24
2023-05-06T21:55:07.901Z,20.86
2023-05-06T21:57:34.627Z,20.65
2023-05-06T22:00:01.672Z,20.66
2023-05-06T22:02:28.366Z,20.79
2023-05-06T22:04:55.010Z,20.96
2023-05-06T22:07:21.615Z,21.13
2023-05-06T22:09:48.219Z,21.03
2023-05-06T22:12:14.802Z,21.12
2023-05-06T22:14:41.882Z,21.15
2023-05-06T22:17:08.950Z,21.13
2023-05-06T22:19:35.576Z,21.20
2023-05-06T22:22:02.479Z,21.23
2023-05-06T22:24:29.092Z,20.99
2023-05-06T22:26:55.682Z,20.96
2023-05-06T22:29:22.281Z,21.01
2023-05-06T22:31:48.895Z,21.10
2023-05-06T22:34:15.510Z,20.90
2023-05-06T22:36:42.138Z,20.94
2023-05-06T22:39:11.551Z,20.91
2023-05-06T22:41:38.099Z,20.87
2023-05-06T22:44:04.805Z,20.90
2023-05-06T22:46:31.477Z,20.93
2023-05-06T22:49:01.103Z,20.97
2023-05-06T22:51:27.688Z,21.01
2023-05-06T22:53:54.256Z,21.04
2023-05-06T22:56:21.142Z,20.90
2023-05-06T22:58:47.993Z,20.68
2023-05-06T23:01:15.747Z,20.89
2023-05-06T23:03:42.419Z,20.88
2023-05-06T23:06:09.639Z,20.89
2023-05-06T23:08:36.213Z,20.87
2023-05-06T23:11:02.788Z,20.80
2023-05-06T23:13:31.541Z,20.81
2023-05-06T23:15:58.132Z,20.73
2023-05-06T23:18:24.758Z,20.52
2023-05-06T23:20:51.319Z,20.36
2023-05-06T23:23:18.914Z,20.21
2023-05-06T23:25:45.576Z,20.56
2023-05-06T23:28:12.369Z,20.60
2023-05-06T23:30:39.012Z,20.63
2023-05-06T23:33:05.710Z,20.76
2023-05-06T23:35:32.437Z,20.89
2023-05-06T23:37:59.028Z,20.94
2023-05-06T23:40:25.705Z,20.88
2023-05-06T23:42:52.549Z,20.80
2023-05-06T23:45:19.109Z,20.64
2023-05-06T23:47:45.878Z,20.64
2023-05-06T23:50:12.654Z,20.73
2023-05-06T23:52:39.620Z,20.93
2023-05-06T23:55:06.195Z,20.93
2023-05-06T23:57:32.991Z,21.07
2023-05-06T23:59:59.577Z,21.08
